Nearby METAR Reports

 

KLOT - Romeoville/Chi, Illinois, USA
Distance from station: N 3mi, 5km
Updated: Sat, 20-Jan-2018 8:15pm CST
Overcast
Overcast
 Wind from S
Wind: S 7 mph , 11 km/h
Temperature: 39°F , 4°C
Wind Chill: 34°F , 1°C
Dew Point: 36°F , 2°C
Humidity: 87%
Barometer: 30.00 inHg , 1015.9 hPa
Clouds: Overcast
Visibility: 7 miles , 11 km
Cloud details: Overcast 1800 ft
2018/01/21 02:15 KLOT 210215Z AUTO 19006KT 7SM OVC018 04/02 A3000 RMK AO2 T00350023
KJOT - Joliet, Illinois, USA
Distance from station: WSW 5mi, 7km
Updated: Sat, 20-Jan-2018 8:15pm CST
Overcast
Overcast
 Wind from S
Wind: S 5 mph , 7 km/h
Temperature: 41°F , 5°C
Wind Chill: 38°F , 3°C
Dew Point: 39°F , 4°C
Humidity: 93%
Barometer: 30.00 inHg , 1015.9 hPa
Clouds: Overcast
Visibility: 10 miles , 16 km
Cloud details: Overcast 1800 ft
2018/01/21 02:15 KJOT 210215Z AUTO 18004KT 10SM OVC018 05/04 A3000 RMK AO2 T00530038
 
KC09 - Morris-Washburn, Illinois, USA
Distance from station: WSW 18mi, 29km
Updated: Sat, 20-Jan-2018 8:15pm CST
Overcast
Overcast
 Wind from SSE
Wind: SSE 7 mph , 11 km/h
Temperature: 39°F , 4°C
Wind Chill: 34°F , 1°C
Dew Point: 36°F , 2°C
Humidity: 87%
Barometer: 29.99 inHg , 1015.6 hPa
Clouds: Overcast
Visibility: 7 miles , 11 km
Cloud details: Overcast 2000 ft
2018/01/21 02:15 KC09 210215Z AUTO 16006KT 7SM OVC020 04/02 A2999 RMK AO2 T00350022
KARR - Chicago/Aurora, Illinois, USA
Distance from station: NW 24mi, 39km
Updated: Sat, 20-Jan-2018 7:52pm CST
Overcast
Overcast
 Wind from S
Wind: S 5 mph , 7 km/h
Temperature: 37°F , 3°C
Wind Chill: 33°F , 1°C
Dew Point: 36°F , 2°C
Humidity: 93%
Barometer: 29.98 inHg , 1015.2 hPa
Clouds: Overcast
Visibility: 10 miles , 16 km
Cloud details: Overcast 1900 ft
2018/01/21 01:52 KARR 210152Z 17004KT 10SM OVC019 03/02 A2998 RMK AO2 SLP161 T00330022
 
KMDW - Chicago, Illinois, USA
Distance from station: NE 25mi, 39km
Updated: Sat, 20-Jan-2018 7:53pm CST
Overcast
Overcast
 Wind from SSW
Wind: SSW 8 mph , 13 km/h
Temperature: 43°F , 6°C
Wind Chill: 38°F , 3°C
Dew Point: 37°F , 3°C
Humidity: 81%
Barometer: 29.99 inHg , 1015.6 hPa
Clouds: Overcast
Visibility: 8 miles , 13 km
Cloud details: Overcast 1700 ft
2018/01/21 01:53 KMDW 210153Z 21007KT 8SM OVC017 06/03 A2999 RMK AO2 SLP165 T00560028
KDPA - Chicago/Dupage, Illinois, USA
Distance from station: NNW 26mi, 42km
Updated: Sat, 20-Jan-2018 7:52pm CST
Mist, Overcast
Mist, Overcast
 Wind from calm
Wind: Calm
Temperature: 37°F , 3°C
Dew Point: 37°F , 3°C
Humidity: 100%
Barometer: 29.98 inHg , 1015.2 hPa
Summary: Mist
Clouds: Overcast
Visibility: 4 miles , 6 km
Cloud details: Overcast 1700 ft
2018/01/21 01:52 KDPA 210152Z 00000KT 4SM BR OVC017 03/03 A2998 RMK AO2 SLP158 T00330028
 
KIGQ - Chicago/Lansing, Illinois, USA
Distance from station: E 30mi, 48km
Updated: Sat, 20-Jan-2018 8:15pm CST
Overcast
Overcast
 Wind from SSW
Wind: SSW 6 mph , 9 km/h
Temperature: 39°F , 4°C
Wind Chill: 35°F , 2°C
Dew Point: 37°F , 3°C
Humidity: 93%
Barometer: 30.01 inHg , 1016.3 hPa
Clouds: Overcast
Visibility: 7 miles , 11 km
Cloud details: Overcast 1400 ft
2018/01/21 02:15 KIGQ 210215Z AUTO 20005KT 7SM OVC014 04/03 A3001 RMK AO2 T00350030
KORD - Chicago O'hare, Illinois, USA
Distance from station: NNE 31mi, 50km
Updated: Sat, 20-Jan-2018 7:51pm CST
Overcast
Overcast
 Wind from SW
Wind: SW 8 mph , 13 km/h
Temperature: 41°F , 5°C
Wind Chill: 36°F , 2°C
Dew Point: 36°F , 2°C
Humidity: 81%
Barometer: 29.99 inHg , 1015.6 hPa
Clouds: Overcast
Visibility: 9 miles , 14 km
Cloud details: Overcast 1800 ft
2018/01/21 01:51 KORD 210151Z 22007KT 9SM OVC018 05/02 A2999 RMK AO2 SLP159 T00500022
 
KGYY - Gary Regional, Indiana, USA
Distance from station: E 36mi, 58km
Updated: Sat, 20-Jan-2018 7:45pm CST
Overcast
Overcast
 Wind from varies
Wind: varies 5 mph , 7 km/h
Temperature: 41°F , 5°C
Wind Chill: 38°F , 3°C
Dew Point: 37°F , 3°C
Humidity: 87%
Barometer: 30.02 inHg , 1016.6 hPa
Clouds: Overcast
Visibility: 10 miles , 16 km
Cloud details: Overcast 1300 ft
2018/01/21 01:45 KGYY 210145Z VRB04KT 10SM OVC013 05/03 A3002
KIKK - Kankakee, Illinois, USA
Distance from station: SSE 36mi, 58km
Updated: Sat, 20-Jan-2018 8:15pm CST
Overcast
Overcast
 Wind from calm
Wind: Calm
Barometer: 30.03 inHg , 1016.9 hPa
Clouds: Overcast
Visibility: 10 miles , 16 km
Cloud details: Overcast 2000 ft
2018/01/21 02:15 KIKK 210215Z AUTO 00000KT 10SM OVC020 A3003 RMK AO2
 
KDKB - De Kalb, Illinois, USA
Distance from station: NW 40mi, 65km
Updated: Sat, 20-Jan-2018 8:15pm CST
Overcast
Overcast
 Wind from SSW
Wind: SSW 5 mph , 7 km/h
Temperature: 39°F , 4°C
Wind Chill: 35°F , 2°C
Dew Point: 36°F , 2°C
Humidity: 87%
Barometer: 29.97 inHg , 1014.9 hPa
Clouds: Overcast
Visibility: 7 miles , 11 km
Cloud details: Overcast 1600 ft
2018/01/21 02:15 KDKB 210215Z AUTO 21004KT 7SM OVC016 04/02 A2997 RMK AO2 T00400023
KPWK - Palwaukee, Illinois, USA
Distance from station: NNE 41mi, 65km
Updated: Sat, 20-Jan-2018 7:52pm CST
Overcast
Overcast
 Wind from SW
Wind: SW 5 mph , 7 km/h
Temperature: 43°F , 6°C
Wind Chill: 40°F , 4°C
Dew Point: 37°F , 3°C
Humidity: 81%
Barometer: 30.00 inHg , 1015.9 hPa
Clouds: Overcast
Visibility: 8 miles , 13 km
Cloud details: Overcast 2200 ft
2018/01/21 01:52 KPWK 210152Z 22004KT 8SM OVC022 06/03 A3000 RMK AO2 SLP163 T00560033